sensor_id;sensor_type;location;lat;lon;timestamp;P1;durP1;ratioP1;P2;durP2;ratioP2
11821;SDS011;5968;50.362;8.982;2022-07-25T00:01:00;3.97;;;2.97;;
11821;SDS011;5968;50.362;8.982;2022-07-25T00:03:32;3.90;;;3.03;;
11821;SDS011;5968;50.362;8.982;2022-07-25T00:05:59;3.37;;;3.03;;
11821;SDS011;5968;50.362;8.982;2022-07-25T00:08:27;4.30;;;3.00;;
11821;SDS011;5968;50.362;8.982;2022-07-25T00:10:55;4.53;;;3.57;;
11821;SDS011;5968;50.362;8.982;2022-07-25T00:13:23;3.43;;;3.13;;
11821;SDS011;5968;50.362;8.982;2022-07-25T00:15:51;4.77;;;3.80;;
11821;SDS011;5968;50.362;8.982;2022-07-25T00:18:22;4.87;;;3.57;;
11821;SDS011;5968;50.362;8.982;2022-07-25T00:20:50;4.20;;;3.33;;
11821;SDS011;5968;50.362;8.982;2022-07-25T00:23:18;7.20;;;3.60;;
11821;SDS011;5968;50.362;8.982;2022-07-25T00:25:45;3.43;;;3.10;;
11821;SDS011;5968;50.362;8.982;2022-07-25T00:28:13;3.93;;;3.53;;
11821;SDS011;5968;50.362;8.982;2022-07-25T00:30:41;4.17;;;3.30;;
11821;SDS011;5968;50.362;8.982;2022-07-25T00:36:35;3.57;;;2.97;;
11821;SDS011;5968;50.362;8.982;2022-07-25T00:39:03;3.33;;;3.03;;
11821;SDS011;5968;50.362;8.982;2022-07-25T00:41:46;4.30;;;3.53;;
11821;SDS011;5968;50.362;8.982;2022-07-25T00:44:21;5.10;;;3.47;;
11821;SDS011;5968;50.362;8.982;2022-07-25T00:46:50;4.70;;;3.37;;
11821;SDS011;5968;50.362;8.982;2022-07-25T00:49:18;4.60;;;3.20;;
11821;SDS011;5968;50.362;8.982;2022-07-25T00:51:48;4.07;;;3.43;;
11821;SDS011;5968;50.362;8.982;2022-07-25T00:54:16;4.80;;;4.03;;
11821;SDS011;5968;50.362;8.982;2022-07-25T00:56:44;3.87;;;3.47;;
11821;SDS011;5968;50.362;8.982;2022-07-25T00:59:12;4.37;;;3.30;;
11821;SDS011;5968;50.362;8.982;2022-07-25T01:01:41;4.53;;;3.63;;
11821;SDS011;5968;50.362;8.982;2022-07-25T01:04:13;4.03;;;2.90;;
11821;SDS011;5968;50.362;8.982;2022-07-25T01:06:53;3.50;;;3.20;;
11821;SDS011;5968;50.362;8.982;2022-07-25T01:09:21;3.47;;;3.17;;
11821;SDS011;5968;50.362;8.982;2022-07-25T01:11:49;4.13;;;3.57;;
11821;SDS011;5968;50.362;8.982;2022-07-25T01:14:24;3.97;;;3.57;;
11821;SDS011;5968;50.362;8.982;2022-07-25T01:16:52;3.40;;;3.10;;
11821;SDS011;5968;50.362;8.982;2022-07-25T01:19:19;4.07;;;3.67;;
11821;SDS011;5968;50.362;8.982;2022-07-25T01:21:49;3.80;;;3.47;;
11821;SDS011;5968;50.362;8.982;2022-07-25T01:24:16;3.87;;;3.50;;
11821;SDS011;5968;50.362;8.982;2022-07-25T01:26:44;3.60;;;3.30;;
11821;SDS011;5968;50.362;8.982;2022-07-25T01:29:12;3.73;;;3.30;;
11821;SDS011;5968;50.362;8.982;2022-07-25T01:31:40;3.30;;;3.00;;
11821;SDS011;5968;50.362;8.982;2022-07-25T01:34:08;4.33;;;3.20;;
11821;SDS011;5968;50.362;8.982;2022-07-25T01:36:35;4.40;;;3.17;;
11821;SDS011;5968;50.362;8.982;2022-07-25T01:39:04;3.63;;;3.33;;
11821;SDS011;5968;50.362;8.982;2022-07-25T01:41:32;3.70;;;3.40;;
11821;SDS011;5968;50.362;8.982;2022-07-25T01:44:00;4.93;;;3.30;;
11821;SDS011;5968;50.362;8.982;2022-07-25T01:49:04;4.47;;;3.60;;
11821;SDS011;5968;50.362;8.982;2022-07-25T01:51:33;4.93;;;3.20;;
11821;SDS011;5968;50.362;8.982;2022-07-25T01:54:00;3.87;;;3.47;;
11821;SDS011;5968;50.362;8.982;2022-07-25T01:56:33;4.10;;;3.53;;
11821;SDS011;5968;50.362;8.982;2022-07-25T01:59:01;4.37;;;3.43;;
11821;SDS011;5968;50.362;8.982;2022-07-25T02:01:28;3.80;;;3.40;;
11821;SDS011;5968;50.362;8.982;2022-07-25T02:03:56;3.47;;;3.17;;
11821;SDS011;5968;50.362;8.982;2022-07-25T02:06:24;4.67;;;4.17;;
11821;SDS011;5968;50.362;8.982;2022-07-25T02:08:52;3.70;;;3.30;;
11821;SDS011;5968;50.362;8.982;2022-07-25T02:11:20;4.50;;;3.70;;
11821;SDS011;5968;50.362;8.982;2022-07-25T02:13:55;5.27;;;3.60;;
11821;SDS011;5968;50.362;8.982;2022-07-25T02:16:24;4.40;;;3.60;;
11821;SDS011;5968;50.362;8.982;2022-07-25T02:18:54;4.00;;;3.50;;
11821;SDS011;5968;50.362;8.982;2022-07-25T02:21:37;4.30;;;3.90;;
11821;SDS011;5968;50.362;8.982;2022-07-25T02:24:05;3.90;;;3.60;;
11821;SDS011;5968;50.362;8.982;2022-07-25T02:26:34;4.20;;;3.33;;
11821;SDS011;5968;50.362;8.982;2022-07-25T02:29:03;3.80;;;3.50;;
11821;SDS011;5968;50.362;8.982;2022-07-25T02:31:35;3.90;;;3.10;;
11821;SDS011;5968;50.362;8.982;2022-07-25T02:34:03;5.10;;;3.57;;
11821;SDS011;5968;50.362;8.982;2022-07-25T02:36:31;4.13;;;3.57;;
11821;SDS011;5968;50.362;8.982;2022-07-25T02:38:59;4.40;;;3.30;;
11821;SDS011;5968;50.362;8.982;2022-07-25T02:41:27;5.97;;;4.20;;
11821;SDS011;5968;50.362;8.982;2022-07-25T02:43:54;3.43;;;3.13;;
11821;SDS011;5968;50.362;8.982;2022-07-25T02:46:24;4.57;;;3.47;;
11821;SDS011;5968;50.362;8.982;2022-07-25T02:48:51;3.40;;;3.10;;
11821;SDS011;5968;50.362;8.982;2022-07-25T02:51:19;3.57;;;3.27;;
11821;SDS011;5968;50.362;8.982;2022-07-25T02:53:47;3.70;;;3.20;;
11821;SDS011;5968;50.362;8.982;2022-07-25T02:56:24;3.80;;;3.50;;
11821;SDS011;5968;50.362;8.982;2022-07-25T02:58:57;5.83;;;3.90;;
11821;SDS011;5968;50.362;8.982;2022-07-25T03:01:29;4.57;;;3.50;;
11821;SDS011;5968;50.362;8.982;2022-07-25T03:03:57;4.63;;;3.80;;
11821;SDS011;5968;50.362;8.982;2022-07-25T03:06:25;4.03;;;3.63;;
11821;SDS011;5968;50.362;8.982;2022-07-25T03:08:53;4.77;;;3.40;;
11821;SDS011;5968;50.362;8.982;2022-07-25T03:11:21;5.00;;;3.93;;
11821;SDS011;5968;50.362;8.982;2022-07-25T03:13:49;4.13;;;3.73;;
11821;SDS011;5968;50.362;8.982;2022-07-25T03:16:17;4.13;;;3.53;;
11821;SDS011;5968;50.362;8.982;2022-07-25T03:18:47;5.73;;;3.67;;
11821;SDS011;5968;50.362;8.982;2022-07-25T03:24:08;3.53;;;3.23;;
11821;SDS011;5968;50.362;8.982;2022-07-25T03:26:51;3.90;;;3.40;;
11821;SDS011;5968;50.362;8.982;2022-07-25T03:29:20;4.77;;;4.00;;
11821;SDS011;5968;50.362;8.982;2022-07-25T03:31:47;3.80;;;3.40;;
11821;SDS011;5968;50.362;8.982;2022-07-25T03:34:17;3.50;;;3.20;;
11821;SDS011;5968;50.362;8.982;2022-07-25T03:36:45;4.20;;;3.77;;
11821;SDS011;5968;50.362;8.982;2022-07-25T03:39:12;7.67;;;3.83;;
11821;SDS011;5968;50.362;8.982;2022-07-25T03:41:41;5.13;;;3.93;;
11821;SDS011;5968;50.362;8.982;2022-07-25T03:44:12;4.13;;;3.73;;
11821;SDS011;5968;50.362;8.982;2022-07-25T03:46:40;3.27;;;2.97;;
11821;SDS011;5968;50.362;8.982;2022-07-25T03:49:08;4.07;;;3.53;;
11821;SDS011;5968;50.362;8.982;2022-07-25T03:51:37;5.13;;;3.43;;
11821;SDS011;5968;50.362;8.982;2022-07-25T03:54:05;3.70;;;3.40;;
11821;SDS011;5968;50.362;8.982;2022-07-25T03:56:51;4.43;;;3.67;;
11821;SDS011;5968;50.362;8.982;2022-07-25T03:59:19;6.07;;;4.07;;
11821;SDS011;5968;50.362;8.982;2022-07-25T04:01:48;5.57;;;3.30;;
11821;SDS011;5968;50.362;8.982;2022-07-25T04:04:17;3.93;;;3.63;;
11821;SDS011;5968;50.362;8.982;2022-07-25T04:06:50;4.23;;;3.50;;
11821;SDS011;5968;50.362;8.982;2022-07-25T04:09:18;7.57;;;3.93;;
11821;SDS011;5968;50.362;8.982;2022-07-25T04:11:45;4.60;;;3.83;;
11821;SDS011;5968;50.362;8.982;2022-07-25T04:14:13;3.90;;;3.60;;
11821;SDS011;5968;50.362;8.982;2022-07-25T04:16:41;7.10;;;4.10;;
11821;SDS011;5968;50.362;8.982;2022-07-25T04:19:09;4.50;;;3.70;;
11821;SDS011;5968;50.362;8.982;2022-07-25T04:21:37;4.80;;;3.63;;
11821;SDS011;5968;50.362;8.982;2022-07-25T04:24:13;3.97;;;3.60;;
11821;SDS011;5968;50.362;8.982;2022-07-25T04:26:41;4.17;;;3.77;;
11821;SDS011;5968;50.362;8.982;2022-07-25T04:29:09;5.20;;;3.90;;
11821;SDS011;5968;50.362;8.982;2022-07-25T04:31:37;9.20;;;4.00;;
11821;SDS011;5968;50.362;8.982;2022-07-25T04:34:05;4.03;;;3.63;;
11821;SDS011;5968;50.362;8.982;2022-07-25T04:36:33;4.63;;;4.10;;
11821;SDS011;5968;50.362;8.982;2022-07-25T04:39:01;6.33;;;3.60;;
11821;SDS011;5968;50.362;8.982;2022-07-25T04:41:30;3.97;;;3.57;;
11821;SDS011;5968;50.362;8.982;2022-07-25T04:46:58;5.10;;;3.47;;
11821;SDS011;5968;50.362;8.982;2022-07-25T04:49:26;4.00;;;3.57;;
11821;SDS011;5968;50.362;8.982;2022-07-25T04:51:55;5.30;;;4.07;;
11821;SDS011;5968;50.362;8.982;2022-07-25T04:54:22;5.40;;;4.30;;
11821;SDS011;5968;50.362;8.982;2022-07-25T04:56:51;4.00;;;3.40;;
11821;SDS011;5968;50.362;8.982;2022-07-25T04:59:19;4.33;;;3.90;;
11821;SDS011;5968;50.362;8.982;2022-07-25T05:01:47;4.17;;;3.77;;
11821;SDS011;5968;50.362;8.982;2022-07-25T05:04:15;5.37;;;4.00;;
11821;SDS011;5968;50.362;8.982;2022-07-25T05:06:43;4.30;;;3.43;;
11821;SDS011;5968;50.362;8.982;2022-07-25T05:09:10;3.83;;;3.40;;
11821;SDS011;5968;50.362;8.982;2022-07-25T05:11:38;4.37;;;3.97;;
11821;SDS011;5968;50.362;8.982;2022-07-25T05:14:16;3.73;;;3.43;;
11821;SDS011;5968;50.362;8.982;2022-07-25T05:16:46;4.10;;;3.70;;
11821;SDS011;5968;50.362;8.982;2022-07-25T05:19:13;3.40;;;3.07;;
11821;SDS011;5968;50.362;8.982;2022-07-25T05:21:42;3.97;;;3.53;;
11821;SDS011;5968;50.362;8.982;2022-07-25T05:24:10;4.27;;;3.70;;
11821;SDS011;5968;50.362;8.982;2022-07-25T05:26:38;4.10;;;3.70;;
11821;SDS011;5968;50.362;8.982;2022-07-25T05:29:06;3.70;;;3.33;;
11821;SDS011;5968;50.362;8.982;2022-07-25T05:31:37;5.67;;;4.03;;
11821;SDS011;5968;50.362;8.982;2022-07-25T05:34:05;4.13;;;3.43;;
11821;SDS011;5968;50.362;8.982;2022-07-25T05:36:33;5.30;;;3.93;;
11821;SDS011;5968;50.362;8.982;2022-07-25T05:39:01;4.50;;;3.63;;
11821;SDS011;5968;50.362;8.982;2022-07-25T05:41:30;4.90;;;3.93;;
11821;SDS011;5968;50.362;8.982;2022-07-25T05:43:58;3.50;;;3.20;;
11821;SDS011;5968;50.362;8.982;2022-07-25T05:46:26;5.03;;;4.20;;
11821;SDS011;5968;50.362;8.982;2022-07-25T05:48:55;3.87;;;3.50;;
11821;SDS011;5968;50.362;8.982;2022-07-25T05:51:23;4.07;;;3.37;;
11821;SDS011;5968;50.362;8.982;2022-07-25T05:53:52;5.23;;;4.20;;
11821;SDS011;5968;50.362;8.982;2022-07-25T05:56:38;5.37;;;3.93;;
11821;SDS011;5968;50.362;8.982;2022-07-25T05:59:06;4.10;;;3.70;;
11821;SDS011;5968;50.362;8.982;2022-07-25T06:01:34;5.10;;;4.20;;
11821;SDS011;5968;50.362;8.982;2022-07-25T06:04:03;5.53;;;4.37;;
11821;SDS011;5968;50.362;8.982;2022-07-25T06:06:32;4.40;;;4.00;;
11821;SDS011;5968;50.362;8.982;2022-07-25T06:09:00;6.33;;;3.97;;
11821;SDS011;5968;50.362;8.982;2022-07-25T06:11:33;4.20;;;3.77;;
11821;SDS011;5968;50.362;8.982;2022-07-25T06:14:16;5.93;;;4.70;;
11821;SDS011;5968;50.362;8.982;2022-07-25T06:16:44;6.83;;;5.07;;
11821;SDS011;5968;50.362;8.982;2022-07-25T06:19:13;5.20;;;4.70;;
11821;SDS011;5968;50.362;8.982;2022-07-25T06:21:41;5.07;;;3.47;;
11821;SDS011;5968;50.362;8.982;2022-07-25T06:24:09;4.57;;;4.07;;
11821;SDS011;5968;50.362;8.982;2022-07-25T06:26:37;4.33;;;3.90;;
11821;SDS011;5968;50.362;8.982;2022-07-25T06:29:05;5.50;;;4.10;;
11821;SDS011;5968;50.362;8.982;2022-07-25T06:31:32;4.33;;;3.47;;
11821;SDS011;5968;50.362;8.982;2022-07-25T06:34:00;5.77;;;4.23;;
11821;SDS011;5968;50.362;8.982;2022-07-25T06:36:30;4.07;;;3.63;;
11821;SDS011;5968;50.362;8.982;2022-07-25T06:38:58;4.40;;;4.00;;
11821;SDS011;5968;50.362;8.982;2022-07-25T06:41:27;5.27;;;4.23;;
11821;SDS011;5968;50.362;8.982;2022-07-25T06:43:55;4.87;;;4.37;;
11821;SDS011;5968;50.362;8.982;2022-07-25T06:46:23;3.70;;;3.40;;
11821;SDS011;5968;50.362;8.982;2022-07-25T06:48:55;4.47;;;4.00;;
11821;SDS011;5968;50.362;8.982;2022-07-25T06:51:22;4.13;;;3.30;;
11821;SDS011;5968;50.362;8.982;2022-07-25T06:53:52;11.50;;;3.93;;
11821;SDS011;5968;50.362;8.982;2022-07-25T06:56:20;4.30;;;3.90;;
11821;SDS011;5968;50.362;8.982;2022-07-25T06:58:48;4.67;;;3.73;;
11821;SDS011;5968;50.362;8.982;2022-07-25T07:01:15;4.30;;;3.83;;
11821;SDS011;5968;50.362;8.982;2022-07-25T07:03:43;5.40;;;4.90;;
11821;SDS011;5968;50.362;8.982;2022-07-25T07:06:12;4.20;;;3.80;;
11821;SDS011;5968;50.362;8.982;2022-07-25T07:08:42;4.10;;;3.70;;
11821;SDS011;5968;50.362;8.982;2022-07-25T07:11:13;5.53;;;4.83;;
11821;SDS011;5968;50.362;8.982;2022-07-25T07:13:42;4.60;;;4.00;;
11821;SDS011;5968;50.362;8.982;2022-07-25T07:16:09;6.63;;;5.93;;
11821;SDS011;5968;50.362;8.982;2022-07-25T07:18:37;7.67;;;5.30;;
11821;SDS011;5968;50.362;8.982;2022-07-25T07:21:05;7.43;;;3.90;;
11821;SDS011;5968;50.362;8.982;2022-07-25T07:23:38;5.30;;;4.80;;
11821;SDS011;5968;50.362;8.982;2022-07-25T07:26:06;5.77;;;4.53;;
11821;SDS011;5968;50.362;8.982;2022-07-25T07:28:35;7.63;;;5.73;;
11821;SDS011;5968;50.362;8.982;2022-07-25T07:31:03;9.13;;;5.70;;
11821;SDS011;5968;50.362;8.982;2022-07-25T07:33:42;8.10;;;6.17;;
11821;SDS011;5968;50.362;8.982;2022-07-25T07:36:10;5.73;;;5.00;;
11821;SDS011;5968;50.362;8.982;2022-07-25T07:38:38;6.07;;;5.03;;
11821;SDS011;5968;50.362;8.982;2022-07-25T07:41:06;5.50;;;4.87;;
11821;SDS011;5968;50.362;8.982;2022-07-25T07:43:36;6.20;;;4.67;;
11821;SDS011;5968;50.362;8.982;2022-07-25T07:46:03;10.00;;;5.53;;
11821;SDS011;5968;50.362;8.982;2022-07-25T07:48:32;5.53;;;4.63;;
11821;SDS011;5968;50.362;8.982;2022-07-25T07:51:02;6.30;;;5.13;;
11821;SDS011;5968;50.362;8.982;2022-07-25T07:53:30;5.03;;;4.53;;
11821;SDS011;5968;50.362;8.982;2022-07-25T07:56:16;5.07;;;4.57;;
11821;SDS011;5968;50.362;8.982;2022-07-25T07:58:46;10.90;;;7.90;;
11821;SDS011;5968;50.362;8.982;2022-07-25T08:01:14;17.93;;;13.70;;
11821;SDS011;5968;50.362;8.982;2022-07-25T08:03:42;8.53;;;5.90;;
11821;SDS011;5968;50.362;8.982;2022-07-25T08:06:10;8.63;;;6.03;;
11821;SDS011;5968;50.362;8.982;2022-07-25T08:08:38;6.03;;;4.87;;
11821;SDS011;5968;50.362;8.982;2022-07-25T08:11:05;6.73;;;5.10;;
11821;SDS011;5968;50.362;8.982;2022-07-25T08:13:33;5.27;;;4.77;;
11821;SDS011;5968;50.362;8.982;2022-07-25T08:16:04;4.37;;;3.97;;
11821;SDS011;5968;50.362;8.982;2022-07-25T08:18:34;5.77;;;5.13;;
11821;SDS011;5968;50.362;8.982;2022-07-25T08:21:02;5.40;;;4.53;;
11821;SDS011;5968;50.362;8.982;2022-07-25T08:23:31;6.67;;;5.73;;
11821;SDS011;5968;50.362;8.982;2022-07-25T08:26:01;6.53;;;5.80;;
11821;SDS011;5968;50.362;8.982;2022-07-25T08:28:30;6.33;;;5.37;;
11821;SDS011;5968;50.362;8.982;2022-07-25T08:30:58;6.00;;;5.40;;
11821;SDS011;5968;50.362;8.982;2022-07-25T08:33:28;7.53;;;5.30;;
11821;SDS011;5968;50.362;8.982;2022-07-25T08:35:56;5.57;;;4.60;;
11821;SDS011;5968;50.362;8.982;2022-07-25T08:38:25;5.07;;;4.57;;
11821;SDS011;5968;50.362;8.982;2022-07-25T08:40:54;5.10;;;4.60;;
11821;SDS011;5968;50.362;8.982;2022-07-25T08:43:23;6.27;;;4.47;;
11821;SDS011;5968;50.362;8.982;2022-07-25T08:45:51;7.17;;;5.23;;
11821;SDS011;5968;50.362;8.982;2022-07-25T08:48:21;5.60;;;5.00;;
11821;SDS011;5968;50.362;8.982;2022-07-25T08:50:51;9.17;;;6.37;;
11821;SDS011;5968;50.362;8.982;2022-07-25T08:53:22;5.40;;;4.90;;
11821;SDS011;5968;50.362;8.982;2022-07-25T08:55:59;8.90;;;6.07;;
11821;SDS011;5968;50.362;8.982;2022-07-25T08:58:35;5.43;;;4.70;;
11821;SDS011;5968;50.362;8.982;2022-07-25T09:01:03;6.00;;;5.23;;
11821;SDS011;5968;50.362;8.982;2022-07-25T09:03:31;6.10;;;5.50;;
11821;SDS011;5968;50.362;8.982;2022-07-25T09:06:02;5.07;;;4.50;;
11821;SDS011;5968;50.362;8.982;2022-07-25T09:08:49;5.93;;;4.80;;
11821;SDS011;5968;50.362;8.982;2022-07-25T09:11:24;8.43;;;4.80;;
11821;SDS011;5968;50.362;8.982;2022-07-25T09:13:57;5.50;;;4.90;;
11821;SDS011;5968;50.362;8.982;2022-07-25T09:16:33;6.30;;;5.67;;
11821;SDS011;5968;50.362;8.982;2022-07-25T09:19:06;6.30;;;4.80;;
11821;SDS011;5968;50.362;8.982;2022-07-25T09:21:37;6.00;;;5.40;;
11821;SDS011;5968;50.362;8.982;2022-07-25T09:24:07;5.68;;;4.78;;
11821;SDS011;5968;50.362;8.982;2022-07-25T09:26:42;5.63;;;4.60;;
11821;SDS011;5968;50.362;8.982;2022-07-25T09:29:19;5.30;;;4.72;;
11821;SDS011;5968;50.362;8.982;2022-07-25T09:31:48;4.57;;;4.18;;
11821;SDS011;5968;50.362;8.982;2022-07-25T09:34:33;5.10;;;4.60;;
11821;SDS011;5968;50.362;8.982;2022-07-25T09:37:05;5.68;;;4.85;;
11821;SDS011;5968;50.362;8.982;2022-07-25T09:39:35;6.00;;;5.35;;
11821;SDS011;5968;50.362;8.982;2022-07-25T09:42:19;6.28;;;4.65;;
11821;SDS011;5968;50.362;8.982;2022-07-25T09:44:59;4.53;;;4.13;;
11821;SDS011;5968;50.362;8.982;2022-07-25T09:47:30;5.38;;;4.88;;
11821;SDS011;5968;50.362;8.982;2022-07-25T09:50:00;7.25;;;5.38;;
11821;SDS011;5968;50.362;8.982;2022-07-25T09:52:30;7.95;;;5.10;;
11821;SDS011;5968;50.362;8.982;2022-07-25T09:55:00;4.82;;;4.13;;
11821;SDS011;5968;50.362;8.982;2022-07-25T09:57:30;4.97;;;4.40;;
11821;SDS011;5968;50.362;8.982;2022-07-25T09:59:58;5.72;;;5.13;;
11821;SDS011;5968;50.362;8.982;2022-07-25T10:02:32;4.03;;;3.72;;
11821;SDS011;5968;50.362;8.982;2022-07-25T10:05:08;9.52;;;5.45;;
11821;SDS011;5968;50.362;8.982;2022-07-25T10:07:42;5.50;;;4.90;;
11821;SDS011;5968;50.362;8.982;2022-07-25T10:10:20;6.22;;;4.60;;
11821;SDS011;5968;50.362;8.982;2022-07-25T10:12:58;5.30;;;4.80;;
11821;SDS011;5968;50.362;8.982;2022-07-25T10:15:39;4.65;;;4.18;;
11821;SDS011;5968;50.362;8.982;2022-07-25T10:18:15;4.10;;;3.70;;
11821;SDS011;5968;50.362;8.982;2022-07-25T10:20:45;5.07;;;4.57;;
11821;SDS011;5968;50.362;8.982;2022-07-25T10:23:22;4.78;;;3.85;;
11821;SDS011;5968;50.362;8.982;2022-07-25T10:25:58;9.57;;;4.88;;
11821;SDS011;5968;50.362;8.982;2022-07-25T10:28:34;4.65;;;4.13;;
11821;SDS011;5968;50.362;8.982;2022-07-25T10:31:16;6.20;;;3.50;;
11821;SDS011;5968;50.362;8.982;2022-07-25T10:33:49;5.00;;;4.53;;
11821;SDS011;5968;50.362;8.982;2022-07-25T10:36:19;4.20;;;3.80;;
11821;SDS011;5968;50.362;8.982;2022-07-25T10:38:50;5.30;;;4.80;;
11821;SDS011;5968;50.362;8.982;2022-07-25T10:41:22;5.60;;;4.88;;
11821;SDS011;5968;50.362;8.982;2022-07-25T10:43:55;6.75;;;5.07;;
11821;SDS011;5968;50.362;8.982;2022-07-25T10:46:25;5.10;;;4.32;;
11821;SDS011;5968;50.362;8.982;2022-07-25T10:48:56;5.28;;;4.72;;
11821;SDS011;5968;50.362;8.982;2022-07-25T10:51:27;4.20;;;3.83;;
11821;SDS011;5968;50.362;8.982;2022-07-25T10:53:58;5.78;;;4.88;;
11821;SDS011;5968;50.362;8.982;2022-07-25T10:56:27;5.43;;;4.90;;
11821;SDS011;5968;50.362;8.982;2022-07-25T10:58:55;5.05;;;4.65;;
11821;SDS011;5968;50.362;8.982;2022-07-25T11:01:25;5.05;;;4.18;;
11821;SDS011;5968;50.362;8.982;2022-07-25T11:03:55;4.95;;;4.30;;
11821;SDS011;5968;50.362;8.982;2022-07-25T11:06:31;5.43;;;4.68;;
11821;SDS011;5968;50.362;8.982;2022-07-25T11:09:02;6.65;;;5.43;;
11821;SDS011;5968;50.362;8.982;2022-07-25T11:11:44;5.05;;;4.43;;
11821;SDS011;5968;50.362;8.982;2022-07-25T11:14:21;5.72;;;4.82;;
11821;SDS011;5968;50.362;8.982;2022-07-25T11:16:51;5.35;;;4.18;;
11821;SDS011;5968;50.362;8.982;2022-07-25T11:19:22;5.55;;;4.30;;
11821;SDS011;5968;50.362;8.982;2022-07-25T11:21:51;8.43;;;4.38;;
11821;SDS011;5968;50.362;8.982;2022-07-25T11:24:31;4.55;;;4.15;;
11821;SDS011;5968;50.362;8.982;2022-07-25T11:27:22;5.57;;;4.70;;
11821;SDS011;5968;50.362;8.982;2022-07-25T11:29:52;7.22;;;4.55;;
11821;SDS011;5968;50.362;8.982;2022-07-25T11:32:20;13.27;;;4.43;;
11821;SDS011;5968;50.362;8.982;2022-07-25T11:34:48;5.03;;;4.55;;
11821;SDS011;5968;50.362;8.982;2022-07-25T11:37:19;5.60;;;4.22;;
11821;SDS011;5968;50.362;8.982;2022-07-25T11:39:50;5.75;;;4.40;;
11821;SDS011;5968;50.362;8.982;2022-07-25T11:42:22;7.05;;;4.65;;
11821;SDS011;5968;50.362;8.982;2022-07-25T11:44:52;5.68;;;4.40;;
11821;SDS011;5968;50.362;8.982;2022-07-25T11:47:21;8.73;;;4.30;;
11821;SDS011;5968;50.362;8.982;2022-07-25T11:49:51;4.18;;;3.60;;
11821;SDS011;5968;50.362;8.982;2022-07-25T11:52:36;4.32;;;3.92;;
11821;SDS011;5968;50.362;8.982;2022-07-25T11:55:26;4.75;;;4.20;;
11821;SDS011;5968;50.362;8.982;2022-07-25T11:57:57;8.15;;;4.28;;
11821;SDS011;5968;50.362;8.982;2022-07-25T12:00:27;4.47;;;3.80;;
11821;SDS011;5968;50.362;8.982;2022-07-25T12:03:04;4.10;;;3.72;;
11821;SDS011;5968;50.362;8.982;2022-07-25T12:05:34;4.38;;;3.97;;
11821;SDS011;5968;50.362;8.982;2022-07-25T12:08:07;6.47;;;3.88;;
11821;SDS011;5968;50.362;8.982;2022-07-25T12:10:38;4.45;;;4.05;;
11821;SDS011;5968;50.362;8.982;2022-07-25T12:13:20;5.82;;;4.10;;
11821;SDS011;5968;50.362;8.982;2022-07-25T12:15:49;5.38;;;4.38;;
11821;SDS011;5968;50.362;8.982;2022-07-25T12:18:17;5.38;;;4.30;;
11821;SDS011;5968;50.362;8.982;2022-07-25T12:20:51;4.30;;;3.97;;
11821;SDS011;5968;50.362;8.982;2022-07-25T12:23:25;4.35;;;3.95;;
11821;SDS011;5968;50.362;8.982;2022-07-25T12:25:54;5.55;;;4.65;;
11821;SDS011;5968;50.362;8.982;2022-07-25T12:28:35;4.82;;;4.20;;
11821;SDS011;5968;50.362;8.982;2022-07-25T12:31:13;4.78;;;4.38;;
11821;SDS011;5968;50.362;8.982;2022-07-25T12:33:40;4.57;;;4.10;;
11821;SDS011;5968;50.362;8.982;2022-07-25T12:36:27;5.20;;;4.13;;
11821;SDS011;5968;50.362;8.982;2022-07-25T12:41:46;4.78;;;3.85;;
11821;SDS011;5968;50.362;8.982;2022-07-25T12:44:13;5.20;;;4.70;;
11821;SDS011;5968;50.362;8.982;2022-07-25T12:46:41;5.50;;;5.00;;
11821;SDS011;5968;50.362;8.982;2022-07-25T12:49:14;9.52;;;4.60;;
11821;SDS011;5968;50.362;8.982;2022-07-25T12:51:43;5.45;;;4.35;;
11821;SDS011;5968;50.362;8.982;2022-07-25T12:54:10;4.85;;;4.43;;
11821;SDS011;5968;50.362;8.982;2022-07-25T12:56:43;4.93;;;4.45;;
11821;SDS011;5968;50.362;8.982;2022-07-25T12:59:13;6.50;;;4.57;;
11821;SDS011;5968;50.362;8.982;2022-07-25T13:01:40;4.68;;;4.28;;
11821;SDS011;5968;50.362;8.982;2022-07-25T13:04:08;4.78;;;4.05;;
11821;SDS011;5968;50.362;8.982;2022-07-25T13:06:36;4.38;;;3.97;;
11821;SDS011;5968;50.362;8.982;2022-07-25T13:09:14;5.75;;;4.25;;
11821;SDS011;5968;50.362;8.982;2022-07-25T13:11:43;4.78;;;4.38;;
11821;SDS011;5968;50.362;8.982;2022-07-25T13:14:12;6.68;;;5.00;;
11821;SDS011;5968;50.362;8.982;2022-07-25T13:16:42;5.47;;;4.88;;
11821;SDS011;5968;50.362;8.982;2022-07-25T13:19:10;10.73;;;4.30;;
11821;SDS011;5968;50.362;8.982;2022-07-25T13:21:53;5.05;;;3.72;;
11821;SDS011;5968;50.362;8.982;2022-07-25T13:24:21;6.15;;;3.75;;
11821;SDS011;5968;50.362;8.982;2022-07-25T13:26:55;5.18;;;3.75;;
11821;SDS011;5968;50.362;8.982;2022-07-25T13:32:48;3.80;;;3.50;;
11821;SDS011;5968;50.362;8.982;2022-07-25T13:40:56;4.10;;;3.60;;
11821;SDS011;5968;50.362;8.982;2022-07-25T13:43:32;4.30;;;3.90;;
11821;SDS011;5968;50.362;8.982;2022-07-25T13:48:55;5.25;;;4.53;;
11821;SDS011;5968;50.362;8.982;2022-07-25T13:51:23;4.78;;;3.63;;
11821;SDS011;5968;50.362;8.982;2022-07-25T13:53:53;3.90;;;3.50;;
11821;SDS011;5968;50.362;8.982;2022-07-25T13:56:34;4.10;;;3.72;;
11821;SDS011;5968;50.362;8.982;2022-07-25T13:59:02;3.97;;;3.58;;
11821;SDS011;5968;50.362;8.982;2022-07-25T14:01:32;5.32;;;4.18;;
11821;SDS011;5968;50.362;8.982;2022-07-25T14:04:01;3.70;;;3.40;;
11821;SDS011;5968;50.362;8.982;2022-07-25T14:06:36;5.15;;;4.22;;
11821;SDS011;5968;50.362;8.982;2022-07-25T14:09:04;6.40;;;3.90;;
11821;SDS011;5968;50.362;8.982;2022-07-25T14:11:43;7.53;;;3.72;;
11821;SDS011;5968;50.362;8.982;2022-07-25T14:16:51;4.00;;;3.60;;
11821;SDS011;5968;50.362;8.982;2022-07-25T14:19:21;4.97;;;4.18;;
11821;SDS011;5968;50.362;8.982;2022-07-25T14:21:53;3.75;;;3.38;;
11821;SDS011;5968;50.362;8.982;2022-07-25T14:24:21;6.07;;;3.85;;
11821;SDS011;5968;50.362;8.982;2022-07-25T14:26:52;3.42;;;2.90;;
11821;SDS011;5968;50.362;8.982;2022-07-25T14:29:20;3.65;;;3.35;;
11821;SDS011;5968;50.362;8.982;2022-07-25T14:31:55;4.63;;;3.45;;
11821;SDS011;5968;50.362;8.982;2022-07-25T14:34:24;3.85;;;3.42;;
11821;SDS011;5968;50.362;8.982;2022-07-25T14:36:52;4.43;;;3.75;;
11821;SDS011;5968;50.362;8.982;2022-07-25T14:39:21;3.70;;;3.40;;
11821;SDS011;5968;50.362;8.982;2022-07-25T14:41:50;4.03;;;3.42;;
11821;SDS011;5968;50.362;8.982;2022-07-25T14:44:18;6.30;;;3.58;;
11821;SDS011;5968;50.362;8.982;2022-07-25T14:46:47;4.72;;;3.75;;
11821;SDS011;5968;50.362;8.982;2022-07-25T14:49:15;4.57;;;3.70;;
11821;SDS011;5968;50.362;8.982;2022-07-25T14:51:45;3.80;;;3.50;;
11821;SDS011;5968;50.362;8.982;2022-07-25T14:54:13;4.50;;;4.10;;
11821;SDS011;5968;50.362;8.982;2022-07-25T14:56:42;6.18;;;3.92;;
11821;SDS011;5968;50.362;8.982;2022-07-25T14:59:10;6.47;;;4.55;;
11821;SDS011;5968;50.362;8.982;2022-07-25T15:01:38;5.60;;;3.72;;
11821;SDS011;5968;50.362;8.982;2022-07-25T15:04:06;4.13;;;3.55;;
11821;SDS011;5968;50.362;8.982;2022-07-25T15:06:34;5.53;;;3.50;;
11821;SDS011;5968;50.362;8.982;2022-07-25T15:09:03;3.70;;;3.28;;
11821;SDS011;5968;50.362;8.982;2022-07-25T15:11:32;5.35;;;3.75;;
11821;SDS011;5968;50.362;8.982;2022-07-25T15:14:00;4.28;;;3.88;;
11821;SDS011;5968;50.362;8.982;2022-07-25T15:16:28;3.85;;;3.45;;
11821;SDS011;5968;50.362;8.982;2022-07-25T15:18:56;4.07;;;3.65;;
11821;SDS011;5968;50.362;8.982;2022-07-25T15:24:37;4.10;;;3.70;;
11821;SDS011;5968;50.362;8.982;2022-07-25T15:27:25;3.92;;;3.63;;
11821;SDS011;5968;50.362;8.982;2022-07-25T15:29:53;3.90;;;3.50;;
11821;SDS011;5968;50.362;8.982;2022-07-25T15:32:21;4.50;;;3.75;;
11821;SDS011;5968;50.362;8.982;2022-07-25T15:34:49;3.97;;;3.63;;
11821;SDS011;5968;50.362;8.982;2022-07-25T15:37:16;4.43;;;3.90;;
11821;SDS011;5968;50.362;8.982;2022-07-25T15:39:50;3.65;;;3.35;;
11821;SDS011;5968;50.362;8.982;2022-07-25T15:42:18;4.95;;;3.97;;
11821;SDS011;5968;50.362;8.982;2022-07-25T15:44:49;4.15;;;3.63;;
11821;SDS011;5968;50.362;8.982;2022-07-25T15:47:37;4.00;;;3.60;;
11821;SDS011;5968;50.362;8.982;2022-07-25T15:50:10;4.30;;;3.92;;
11821;SDS011;5968;50.362;8.982;2022-07-25T15:52:45;4.65;;;3.78;;